Martinez, Georgia
Current Conditions -  °F | °C
As of 6:53 PM on Saturday 25 Oct 2014 (Local Time) from KDNL Reporting Station
Clear Clear  
Wind Chill: 70°   Ceiling: Unl
Heat Index: 70°   Visibility: 10mi
Dew Point: 42°   Wind: 5mph
Humidity: 36%   Direction: 270°W
Pressure: 29.98"   Gusts: NA
Location:  33.52°N, 82.07°W
Report Text: KDNL 252253Z AUTO 27004KT 10SM CLR 21/06 A2998 RMK AO2 SLP148 T02110056 $
Loading
Personal Weather Stations






























Interactive Weather Map
Tropical Storm Tracking
New forecast layout! Learn more

10-Day Weather Forecast

Advertisements
Track Severe Weather on mobile